sensor_id;sensor_type;location;lat;lon;timestamp;temperature;humidity
60723;DHT22;46574;52.818;6.516;2023-01-29T00:01:27;4.00;99.90
60723;DHT22;46574;52.818;6.516;2023-01-29T00:03:53;3.90;99.90
60723;DHT22;46574;52.818;6.516;2023-01-29T00:06:18;3.90;99.90
60723;DHT22;46574;52.818;6.516;2023-01-29T00:08:44;3.90;99.90
60723;DHT22;46574;52.818;6.516;2023-01-29T00:11:11;3.90;99.90
60723;DHT22;46574;52.818;6.516;2023-01-29T00:13:36;3.90;99.90
60723;DHT22;46574;52.818;6.516;2023-01-29T00:16:02;3.90;99.90
60723;DHT22;46574;52.818;6.516;2023-01-29T00:18:28;3.90;99.90
60723;DHT22;46574;52.818;6.516;2023-01-29T00:20:54;3.90;99.90
60723;DHT22;46574;52.818;6.516;2023-01-29T00:23:21;3.90;99.90
60723;DHT22;46574;52.818;6.516;2023-01-29T00:25:47;3.90;99.90
60723;DHT22;46574;52.818;6.516;2023-01-29T00:28:13;3.90;99.90
60723;DHT22;46574;52.818;6.516;2023-01-29T00:30:40;3.90;99.90
60723;DHT22;46574;52.818;6.516;2023-01-29T00:33:06;3.90;99.90
60723;DHT22;46574;52.818;6.516;2023-01-29T00:35:33;3.90;99.90
60723;DHT22;46574;52.818;6.516;2023-01-29T00:37:58;3.90;99.90
60723;DHT22;46574;52.818;6.516;2023-01-29T00:40:25;3.90;99.90
60723;DHT22;46574;52.818;6.516;2023-01-29T00:42:51;3.90;99.90
60723;DHT22;46574;52.818;6.516;2023-01-29T00:45:35;3.90;99.90
60723;DHT22;46574;52.818;6.516;2023-01-29T00:48:02;3.90;99.90
60723;DHT22;46574;52.818;6.516;2023-01-29T00:50:28;4.00;99.90
60723;DHT22;46574;52.818;6.516;2023-01-29T00:52:54;4.00;99.90
60723;DHT22;46574;52.818;6.516;2023-01-29T00:55:20;4.00;99.90
60723;DHT22;46574;52.818;6.516;2023-01-29T00:57:46;4.00;99.90
60723;DHT22;46574;52.818;6.516;2023-01-29T01:00:14;4.00;99.90
60723;DHT22;46574;52.818;6.516;2023-01-29T01:02:40;4.00;99.90
60723;DHT22;46574;52.818;6.516;2023-01-29T01:05:25;4.00;99.90
60723;DHT22;46574;52.818;6.516;2023-01-29T01:07:53;4.00;99.90
60723;DHT22;46574;52.818;6.516;2023-01-29T01:10:31;4.00;99.90
60723;DHT22;46574;52.818;6.516;2023-01-29T01:13:02;4.00;99.90
60723;DHT22;46574;52.818;6.516;2023-01-29T01:15:36;4.00;99.90
60723;DHT22;46574;52.818;6.516;2023-01-29T01:18:03;4.00;99.90
60723;DHT22;46574;52.818;6.516;2023-01-29T01:20:30;4.00;99.90
60723;DHT22;46574;52.818;6.516;2023-01-29T01:22:56;4.00;99.90
60723;DHT22;46574;52.818;6.516;2023-01-29T01:25:24;4.00;99.90
60723;DHT22;46574;52.818;6.516;2023-01-29T01:27:54;4.00;99.90
60723;DHT22;46574;52.818;6.516;2023-01-29T01:30:21;4.10;99.90
60723;DHT22;46574;52.818;6.516;2023-01-29T01:32:48;4.10;99.90
60723;DHT22;46574;52.818;6.516;2023-01-29T01:35:13;4.10;99.90
60723;DHT22;46574;52.818;6.516;2023-01-29T01:37:39;4.00;99.90
60723;DHT22;46574;52.818;6.516;2023-01-29T01:40:07;4.00;99.90
60723;DHT22;46574;52.818;6.516;2023-01-29T01:42:40;4.10;99.90
60723;DHT22;46574;52.818;6.516;2023-01-29T01:45:22;4.10;99.90
60723;DHT22;46574;52.818;6.516;2023-01-29T01:47:56;4.10;99.90
60723;DHT22;46574;52.818;6.516;2023-01-29T01:50:29;4.00;99.90
60723;DHT22;46574;52.818;6.516;2023-01-29T01:53:14;4.10;99.90
60723;DHT22;46574;52.818;6.516;2023-01-29T01:56:08;4.10;99.90
60723;DHT22;46574;52.818;6.516;2023-01-29T01:58:41;4.10;99.90
60723;DHT22;46574;52.818;6.516;2023-01-29T02:01:08;4.10;99.90
60723;DHT22;46574;52.818;6.516;2023-01-29T02:04:43;4.10;99.90
60723;DHT22;46574;52.818;6.516;2023-01-29T02:07:03;4.10;99.90
60723;DHT22;46574;52.818;6.516;2023-01-29T02:09:52;4.10;99.90
60723;DHT22;46574;52.818;6.516;2023-01-29T02:12:20;4.10;99.90
60723;DHT22;46574;52.818;6.516;2023-01-29T02:14:46;4.10;99.90
60723;DHT22;46574;52.818;6.516;2023-01-29T02:17:14;4.10;99.90
60723;DHT22;46574;52.818;6.516;2023-01-29T02:19:48;4.10;99.90
60723;DHT22;46574;52.818;6.516;2023-01-29T02:22:25;4.10;99.90
60723;DHT22;46574;52.818;6.516;2023-01-29T02:24:58;4.10;99.90
60723;DHT22;46574;52.818;6.516;2023-01-29T02:30:32;4.10;99.90
60723;DHT22;46574;52.818;6.516;2023-01-29T02:33:09;4.10;99.90
60723;DHT22;46574;52.818;6.516;2023-01-29T02:35:44;4.10;99.90
60723;DHT22;46574;52.818;6.516;2023-01-29T02:38:42;4.10;99.90
60723;DHT22;46574;52.818;6.516;2023-01-29T02:41:18;4.10;99.90
60723;DHT22;46574;52.818;6.516;2023-01-29T02:44:20;4.10;99.90
60723;DHT22;46574;52.818;6.516;2023-01-29T02:51:46;4.10;99.90
60723;DHT22;46574;52.818;6.516;2023-01-29T02:56:58;4.10;99.90
60723;DHT22;46574;52.818;6.516;2023-01-29T02:59:53;4.10;99.90
60723;DHT22;46574;52.818;6.516;2023-01-29T03:02:42;4.10;99.90
60723;DHT22;46574;52.818;6.516;2023-01-29T03:05:21;4.10;99.90
60723;DHT22;46574;52.818;6.516;2023-01-29T03:07:50;4.10;99.90
60723;DHT22;46574;52.818;6.516;2023-01-29T03:10:32;4.10;99.90
60723;DHT22;46574;52.818;6.516;2023-01-29T03:13:12;4.10;99.90
60723;DHT22;46574;52.818;6.516;2023-01-29T03:15:42;4.10;99.90
60723;DHT22;46574;52.818;6.516;2023-01-29T03:18:14;4.10;99.90
60723;DHT22;46574;52.818;6.516;2023-01-29T03:20:48;4.10;99.90
60723;DHT22;46574;52.818;6.516;2023-01-29T03:23:34;4.10;99.90
60723;DHT22;46574;52.818;6.516;2023-01-29T03:26:21;4.10;99.90
60723;DHT22;46574;52.818;6.516;2023-01-29T03:29:06;4.20;99.90
60723;DHT22;46574;52.818;6.516;2023-01-29T03:31:54;4.20;99.90
60723;DHT22;46574;52.818;6.516;2023-01-29T03:34:40;4.20;99.90
60723;DHT22;46574;52.818;6.516;2023-01-29T03:37:35;4.20;99.90
60723;DHT22;46574;52.818;6.516;2023-01-29T03:40:04;4.20;99.90
60723;DHT22;46574;52.818;6.516;2023-01-29T03:42:40;4.20;99.90
60723;DHT22;46574;52.818;6.516;2023-01-29T03:47:47;4.20;99.90
60723;DHT22;46574;52.818;6.516;2023-01-29T03:50:38;4.30;99.90
60723;DHT22;46574;52.818;6.516;2023-01-29T03:53:13;4.30;99.90
60723;DHT22;46574;52.818;6.516;2023-01-29T03:55:57;4.30;99.90
60723;DHT22;46574;52.818;6.516;2023-01-29T04:01:23;4.30;99.90
60723;DHT22;46574;52.818;6.516;2023-01-29T04:04:05;4.30;99.90
60723;DHT22;46574;52.818;6.516;2023-01-29T04:06:36;4.30;99.90
60723;DHT22;46574;52.818;6.516;2023-01-29T04:09:15;4.30;99.90
60723;DHT22;46574;52.818;6.516;2023-01-29T04:11:49;4.30;99.90
60723;DHT22;46574;52.818;6.516;2023-01-29T04:14:17;4.30;99.90
60723;DHT22;46574;52.818;6.516;2023-01-29T04:16:48;4.30;99.90
60723;DHT22;46574;52.818;6.516;2023-01-29T04:19:16;4.30;99.90
60723;DHT22;46574;52.818;6.516;2023-01-29T04:21:42;4.30;99.90
60723;DHT22;46574;52.818;6.516;2023-01-29T04:24:08;4.30;99.90
60723;DHT22;46574;52.818;6.516;2023-01-29T04:27:11;4.30;99.90
60723;DHT22;46574;52.818;6.516;2023-01-29T04:30:01;4.30;99.90
60723;DHT22;46574;52.818;6.516;2023-01-29T04:32:44;4.30;99.90
60723;DHT22;46574;52.818;6.516;2023-01-29T04:38:29;4.40;99.90
60723;DHT22;46574;52.818;6.516;2023-01-29T04:41:23;4.30;99.90
60723;DHT22;46574;52.818;6.516;2023-01-29T04:43:59;4.40;99.90
60723;DHT22;46574;52.818;6.516;2023-01-29T04:51:50;4.40;99.90
60723;DHT22;46574;52.818;6.516;2023-01-29T04:54:50;4.40;99.90
60723;DHT22;46574;52.818;6.516;2023-01-29T05:00:02;4.40;99.90
60723;DHT22;46574;52.818;6.516;2023-01-29T05:02:31;4.40;99.90
60723;DHT22;46574;52.818;6.516;2023-01-29T05:04:57;4.40;99.90
60723;DHT22;46574;52.818;6.516;2023-01-29T05:07:24;4.40;99.90
60723;DHT22;46574;52.818;6.516;2023-01-29T05:09:50;4.40;99.90
60723;DHT22;46574;52.818;6.516;2023-01-29T05:12:17;4.40;99.90
60723;DHT22;46574;52.818;6.516;2023-01-29T05:14:44;4.40;99.90
60723;DHT22;46574;52.818;6.516;2023-01-29T05:17:17;4.40;99.90
60723;DHT22;46574;52.818;6.516;2023-01-29T05:19:45;4.40;99.90
60723;DHT22;46574;52.818;6.516;2023-01-29T05:22:13;4.40;99.90
60723;DHT22;46574;52.818;6.516;2023-01-29T05:24:40;4.40;99.90
60723;DHT22;46574;52.818;6.516;2023-01-29T05:27:07;4.40;99.90
60723;DHT22;46574;52.818;6.516;2023-01-29T05:29:54;4.40;99.90
60723;DHT22;46574;52.818;6.516;2023-01-29T05:32:21;4.40;99.90
60723;DHT22;46574;52.818;6.516;2023-01-29T05:34:47;4.40;99.90
60723;DHT22;46574;52.818;6.516;2023-01-29T05:37:13;4.30;99.90
60723;DHT22;46574;52.818;6.516;2023-01-29T05:39:38;4.40;99.90
60723;DHT22;46574;52.818;6.516;2023-01-29T05:42:04;4.40;99.90
60723;DHT22;46574;52.818;6.516;2023-01-29T05:44:29;4.40;99.90
60723;DHT22;46574;52.818;6.516;2023-01-29T05:46:55;4.40;99.90
60723;DHT22;46574;52.818;6.516;2023-01-29T05:49:21;4.40;99.90
60723;DHT22;46574;52.818;6.516;2023-01-29T05:51:47;4.40;99.90
60723;DHT22;46574;52.818;6.516;2023-01-29T05:54:13;4.40;99.90
60723;DHT22;46574;52.818;6.516;2023-01-29T05:56:41;4.40;99.90
60723;DHT22;46574;52.818;6.516;2023-01-29T05:59:07;4.40;99.90
60723;DHT22;46574;52.818;6.516;2023-01-29T06:01:33;4.40;99.90
60723;DHT22;46574;52.818;6.516;2023-01-29T06:03:58;4.40;99.90
60723;DHT22;46574;52.818;6.516;2023-01-29T06:06:24;4.40;99.90
60723;DHT22;46574;52.818;6.516;2023-01-29T06:08:49;4.40;99.90
60723;DHT22;46574;52.818;6.516;2023-01-29T06:11:16;4.40;99.90
60723;DHT22;46574;52.818;6.516;2023-01-29T06:13:43;4.40;99.90
60723;DHT22;46574;52.818;6.516;2023-01-29T06:16:10;4.40;99.90
60723;DHT22;46574;52.818;6.516;2023-01-29T06:18:36;4.40;99.90
60723;DHT22;46574;52.818;6.516;2023-01-29T06:21:04;4.40;99.90
60723;DHT22;46574;52.818;6.516;2023-01-29T06:23:30;4.40;99.90
60723;DHT22;46574;52.818;6.516;2023-01-29T06:26:01;4.30;99.90
60723;DHT22;46574;52.818;6.516;2023-01-29T06:28:27;4.40;99.90
60723;DHT22;46574;52.818;6.516;2023-01-29T06:30:52;4.30;99.90
60723;DHT22;46574;52.818;6.516;2023-01-29T06:33:20;4.30;99.90
60723;DHT22;46574;52.818;6.516;2023-01-29T06:35:46;4.30;99.90
60723;DHT22;46574;52.818;6.516;2023-01-29T06:38:12;4.30;99.90
60723;DHT22;46574;52.818;6.516;2023-01-29T06:40:37;4.30;99.90
60723;DHT22;46574;52.818;6.516;2023-01-29T06:43:03;4.30;99.90
60723;DHT22;46574;52.818;6.516;2023-01-29T06:45:29;4.30;99.90
60723;DHT22;46574;52.818;6.516;2023-01-29T06:47:55;4.30;99.90
60723;DHT22;46574;52.818;6.516;2023-01-29T06:50:20;4.30;99.90
60723;DHT22;46574;52.818;6.516;2023-01-29T06:52:46;4.40;99.90
60723;DHT22;46574;52.818;6.516;2023-01-29T06:55:12;4.40;99.90
60723;DHT22;46574;52.818;6.516;2023-01-29T06:57:37;4.40;99.90
60723;DHT22;46574;52.818;6.516;2023-01-29T07:00:04;4.40;99.90
60723;DHT22;46574;52.818;6.516;2023-01-29T07:02:30;4.40;99.90
60723;DHT22;46574;52.818;6.516;2023-01-29T07:04:56;4.40;99.90
60723;DHT22;46574;52.818;6.516;2023-01-29T07:07:22;4.40;99.90
60723;DHT22;46574;52.818;6.516;2023-01-29T07:09:47;4.40;99.90
60723;DHT22;46574;52.818;6.516;2023-01-29T07:12:13;4.40;99.90
60723;DHT22;46574;52.818;6.516;2023-01-29T07:14:38;4.40;99.90
60723;DHT22;46574;52.818;6.516;2023-01-29T07:17:04;4.40;99.90
60723;DHT22;46574;52.818;6.516;2023-01-29T07:19:30;4.40;99.90
60723;DHT22;46574;52.818;6.516;2023-01-29T07:21:55;4.40;99.90
60723;DHT22;46574;52.818;6.516;2023-01-29T07:24:21;4.40;99.90
60723;DHT22;46574;52.818;6.516;2023-01-29T07:26:47;4.40;99.90
60723;DHT22;46574;52.818;6.516;2023-01-29T07:29:12;4.40;99.90
60723;DHT22;46574;52.818;6.516;2023-01-29T07:31:38;4.40;99.90
60723;DHT22;46574;52.818;6.516;2023-01-29T07:34:03;4.40;99.90
60723;DHT22;46574;52.818;6.516;2023-01-29T07:36:29;4.40;99.90
60723;DHT22;46574;52.818;6.516;2023-01-29T07:38:55;4.40;99.90
60723;DHT22;46574;52.818;6.516;2023-01-29T07:41:21;4.40;99.90
60723;DHT22;46574;52.818;6.516;2023-01-29T07:43:47;4.40;99.90
60723;DHT22;46574;52.818;6.516;2023-01-29T07:46:12;4.40;99.90
60723;DHT22;46574;52.818;6.516;2023-01-29T07:48:38;4.40;99.90
60723;DHT22;46574;52.818;6.516;2023-01-29T07:51:04;4.40;99.90
60723;DHT22;46574;52.818;6.516;2023-01-29T07:53:29;4.40;99.90
60723;DHT22;46574;52.818;6.516;2023-01-29T07:55:56;4.40;99.90
60723;DHT22;46574;52.818;6.516;2023-01-29T07:58:21;4.40;99.90
60723;DHT22;46574;52.818;6.516;2023-01-29T08:00:47;4.40;99.90
60723;DHT22;46574;52.818;6.516;2023-01-29T08:03:15;4.40;99.90
60723;DHT22;46574;52.818;6.516;2023-01-29T08:05:42;4.40;99.90
60723;DHT22;46574;52.818;6.516;2023-01-29T08:08:08;4.40;99.90
60723;DHT22;46574;52.818;6.516;2023-01-29T08:10:35;4.50;99.90
60723;DHT22;46574;52.818;6.516;2023-01-29T08:13:01;4.50;99.90
60723;DHT22;46574;52.818;6.516;2023-01-29T08:15:28;4.50;99.90
60723;DHT22;46574;52.818;6.516;2023-01-29T08:17:54;4.50;99.90
60723;DHT22;46574;52.818;6.516;2023-01-29T08:20:21;4.50;99.90
60723;DHT22;46574;52.818;6.516;2023-01-29T08:22:47;4.50;99.90
60723;DHT22;46574;52.818;6.516;2023-01-29T08:25:13;4.50;99.90
60723;DHT22;46574;52.818;6.516;2023-01-29T08:27:39;4.50;99.90
60723;DHT22;46574;52.818;6.516;2023-01-29T08:30:06;4.50;99.90
60723;DHT22;46574;52.818;6.516;2023-01-29T08:32:32;4.60;99.90
60723;DHT22;46574;52.818;6.516;2023-01-29T08:34:59;4.60;99.90
60723;DHT22;46574;52.818;6.516;2023-01-29T08:37:25;4.60;99.90
60723;DHT22;46574;52.818;6.516;2023-01-29T08:39:50;4.60;99.90
60723;DHT22;46574;52.818;6.516;2023-01-29T08:42:16;4.60;99.90
60723;DHT22;46574;52.818;6.516;2023-01-29T08:44:42;4.60;99.90
60723;DHT22;46574;52.818;6.516;2023-01-29T08:47:07;4.60;99.90
60723;DHT22;46574;52.818;6.516;2023-01-29T08:49:33;4.70;99.90
60723;DHT22;46574;52.818;6.516;2023-01-29T08:51:58;4.70;99.90
60723;DHT22;46574;52.818;6.516;2023-01-29T08:54:24;4.70;99.90
60723;DHT22;46574;52.818;6.516;2023-01-29T08:56:50;4.70;99.90
60723;DHT22;46574;52.818;6.516;2023-01-29T08:59:16;4.80;99.90
60723;DHT22;46574;52.818;6.516;2023-01-29T09:01:41;4.80;99.90
60723;DHT22;46574;52.818;6.516;2023-01-29T09:04:07;4.80;99.90
60723;DHT22;46574;52.818;6.516;2023-01-29T09:06:33;4.70;99.90
60723;DHT22;46574;52.818;6.516;2023-01-29T09:08:58;4.70;99.90
60723;DHT22;46574;52.818;6.516;2023-01-29T09:11:24;4.70;99.90
60723;DHT22;46574;52.818;6.516;2023-01-29T09:13:51;4.70;99.90
60723;DHT22;46574;52.818;6.516;2023-01-29T09:16:16;4.70;99.90
60723;DHT22;46574;52.818;6.516;2023-01-29T09:18:42;4.70;99.90
60723;DHT22;46574;52.818;6.516;2023-01-29T09:21:08;4.80;99.90
60723;DHT22;46574;52.818;6.516;2023-01-29T09:23:33;4.80;99.90
60723;DHT22;46574;52.818;6.516;2023-01-29T09:25:59;4.80;99.90
60723;DHT22;46574;52.818;6.516;2023-01-29T09:28:25;4.80;99.90
60723;DHT22;46574;52.818;6.516;2023-01-29T09:30:51;4.80;99.90
60723;DHT22;46574;52.818;6.516;2023-01-29T09:33:16;4.90;99.90
60723;DHT22;46574;52.818;6.516;2023-01-29T09:35:43;4.90;99.90
60723;DHT22;46574;52.818;6.516;2023-01-29T09:38:10;5.00;99.90
60723;DHT22;46574;52.818;6.516;2023-01-29T09:40:56;5.00;99.90
60723;DHT22;46574;52.818;6.516;2023-01-29T09:48:41;5.10;99.90
60723;DHT22;46574;52.818;6.516;2023-01-29T09:51:19;5.20;99.90
60723;DHT22;46574;52.818;6.516;2023-01-29T09:53:57;5.20;99.90
60723;DHT22;46574;52.818;6.516;2023-01-29T09:56:29;5.20;99.90
60723;DHT22;46574;52.818;6.516;2023-01-29T09:58:57;5.10;99.90
60723;DHT22;46574;52.818;6.516;2023-01-29T10:23:32;5.20;99.90
60723;DHT22;46574;52.818;6.516;2023-01-29T10:25:59;5.20;99.90
60723;DHT22;46574;52.818;6.516;2023-01-29T10:28:36;5.20;99.90
60723;DHT22;46574;52.818;6.516;2023-01-29T10:31:17;5.20;99.90
60723;DHT22;46574;52.818;6.516;2023-01-29T10:33:50;5.30;99.90
60723;DHT22;46574;52.818;6.516;2023-01-29T10:36:25;5.30;99.90
60723;DHT22;46574;52.818;6.516;2023-01-29T10:38:51;5.30;99.90
60723;DHT22;46574;52.818;6.516;2023-01-29T10:41:34;5.20;99.90
60723;DHT22;46574;52.818;6.516;2023-01-29T10:52:38;5.20;99.90
60723;DHT22;46574;52.818;6.516;2023-01-29T10:55:19;5.30;99.90
60723;DHT22;46574;52.818;6.516;2023-01-29T11:00:37;5.30;99.90
60723;DHT22;46574;52.818;6.516;2023-01-29T11:03:20;5.30;99.90
60723;DHT22;46574;52.818;6.516;2023-01-29T11:17:14;5.30;99.90
60723;DHT22;46574;52.818;6.516;2023-01-29T11:19:43;5.30;99.90
60723;DHT22;46574;52.818;6.516;2023-01-29T11:22:15;5.30;99.90
60723;DHT22;46574;52.818;6.516;2023-01-29T11:24:41;5.40;99.90
60723;DHT22;46574;52.818;6.516;2023-01-29T11:27:24;5.40;99.90
60723;DHT22;46574;52.818;6.516;2023-01-29T11:29:54;5.40;99.90
60723;DHT22;46574;52.818;6.516;2023-01-29T11:35:23;5.50;99.90
60723;DHT22;46574;52.818;6.516;2023-01-29T11:37:49;5.40;99.90
60723;DHT22;46574;52.818;6.516;2023-01-29T11:42:47;5.40;99.90
60723;DHT22;46574;52.818;6.516;2023-01-29T11:47:48;5.40;99.90
60723;DHT22;46574;52.818;6.516;2023-01-29T11:50:23;5.40;99.90
60723;DHT22;46574;52.818;6.516;2023-01-29T11:52:49;5.40;99.90
60723;DHT22;46574;52.818;6.516;2023-01-29T11:55:22;5.40;99.90
60723;DHT22;46574;52.818;6.516;2023-01-29T11:58:02;5.30;99.90
60723;DHT22;46574;52.818;6.516;2023-01-29T12:00:31;5.40;99.90
60723;DHT22;46574;52.818;6.516;2023-01-29T12:05:29;5.50;99.90
60723;DHT22;46574;52.818;6.516;2023-01-29T12:07:56;5.50;99.90
60723;DHT22;46574;52.818;6.516;2023-01-29T12:10:35;5.60;99.90
60723;DHT22;46574;52.818;6.516;2023-01-29T12:15:45;5.60;99.90
60723;DHT22;46574;52.818;6.516;2023-01-29T12:20:47;5.60;99.90
60723;DHT22;46574;52.818;6.516;2023-01-29T12:26:15;5.70;99.90
60723;DHT22;46574;52.818;6.516;2023-01-29T12:32:19;5.80;99.90
60723;DHT22;46574;52.818;6.516;2023-01-29T12:34:54;5.80;99.90
60723;DHT22;46574;52.818;6.516;2023-01-29T12:37:51;5.80;99.90
60723;DHT22;46574;52.818;6.516;2023-01-29T12:40:20;5.80;99.90
60723;DHT22;46574;52.818;6.516;2023-01-29T12:42:51;5.80;99.90
60723;DHT22;46574;52.818;6.516;2023-01-29T12:45:20;5.80;99.90
60723;DHT22;46574;52.818;6.516;2023-01-29T12:47:55;5.80;99.90
60723;DHT22;46574;52.818;6.516;2023-01-29T12:50:32;5.80;99.90
60723;DHT22;46574;52.818;6.516;2023-01-29T12:53:02;5.80;99.90
60723;DHT22;46574;52.818;6.516;2023-01-29T12:55:41;5.70;99.90
60723;DHT22;46574;52.818;6.516;2023-01-29T12:58:20;5.70;99.90
60723;DHT22;46574;52.818;6.516;2023-01-29T13:00:49;5.70;99.90
60723;DHT22;46574;52.818;6.516;2023-01-29T13:05:53;5.50;99.90
60723;DHT22;46574;52.818;6.516;2023-01-29T13:08:31;5.50;99.90
60723;DHT22;46574;52.818;6.516;2023-01-29T13:11:03;5.40;99.90
60723;DHT22;46574;52.818;6.516;2023-01-29T13:13:56;5.40;99.90
60723;DHT22;46574;52.818;6.516;2023-01-29T13:16:23;5.40;99.90
60723;DHT22;46574;52.818;6.516;2023-01-29T13:18:57;5.30;99.90
60723;DHT22;46574;52.818;6.516;2023-01-29T13:21:28;5.40;99.90
60723;DHT22;46574;52.818;6.516;2023-01-29T13:24:02;5.30;99.90
60723;DHT22;46574;52.818;6.516;2023-01-29T13:26:28;5.40;99.90
60723;DHT22;46574;52.818;6.516;2023-01-29T13:28:56;5.40;99.90
60723;DHT22;46574;52.818;6.516;2023-01-29T13:31:38;5.40;99.90
60723;DHT22;46574;52.818;6.516;2023-01-29T13:34:15;5.40;99.90
60723;DHT22;46574;52.818;6.516;2023-01-29T13:36:46;5.50;99.90
60723;DHT22;46574;52.818;6.516;2023-01-29T13:39:28;5.50;99.90
60723;DHT22;46574;52.818;6.516;2023-01-29T13:41:56;5.50;99.90
60723;DHT22;46574;52.818;6.516;2023-01-29T13:44:37;5.50;99.90
60723;DHT22;46574;52.818;6.516;2023-01-29T13:47:05;5.50;99.90
60723;DHT22;46574;52.818;6.516;2023-01-29T13:49:42;5.50;99.90
60723;DHT22;46574;52.818;6.516;2023-01-29T13:55:23;5.60;99.90
60723;DHT22;46574;52.818;6.516;2023-01-29T13:57:56;5.60;99.90
60723;DHT22;46574;52.818;6.516;2023-01-29T14:06:01;5.60;99.90
60723;DHT22;46574;52.818;6.516;2023-01-29T14:13:45;5.60;99.90
60723;DHT22;46574;52.818;6.516;2023-01-29T14:23:50;5.50;99.90
60723;DHT22;46574;52.818;6.516;2023-01-29T14:26:32;5.40;99.90
60723;DHT22;46574;52.818;6.516;2023-01-29T14:34:54;5.30;99.90
60723;DHT22;46574;52.818;6.516;2023-01-29T14:37:32;5.30;99.90
60723;DHT22;46574;52.818;6.516;2023-01-29T14:42:38;5.20;99.90
60723;DHT22;46574;52.818;6.516;2023-01-29T14:45:19;5.30;99.90
60723;DHT22;46574;52.818;6.516;2023-01-29T14:53:20;5.20;99.90
60723;DHT22;46574;52.818;6.516;2023-01-29T14:56:16;5.20;99.90
60723;DHT22;46574;52.818;6.516;2023-01-29T14:59:00;5.20;99.90
60723;DHT22;46574;52.818;6.516;2023-01-29T15:01:39;5.10;99.90
60723;DHT22;46574;52.818;6.516;2023-01-29T15:04:39;5.10;99.90
60723;DHT22;46574;52.818;6.516;2023-01-29T15:07:06;5.10;99.90
60723;DHT22;46574;52.818;6.516;2023-01-29T15:12:27;5.00;99.90
60723;DHT22;46574;52.818;6.516;2023-01-29T15:18:04;5.00;99.90
60723;DHT22;46574;52.818;6.516;2023-01-29T15:20:33;5.00;99.90
60723;DHT22;46574;52.818;6.516;2023-01-29T15:23:00;5.00;99.90
60723;DHT22;46574;52.818;6.516;2023-01-29T15:25:34;5.00;99.90
60723;DHT22;46574;52.818;6.516;2023-01-29T15:28:02;5.00;99.90
60723;DHT22;46574;52.818;6.516;2023-01-29T15:30:32;5.10;99.90
60723;DHT22;46574;52.818;6.516;2023-01-29T15:32:58;5.00;99.90
60723;DHT22;46574;52.818;6.516;2023-01-29T15:38:16;5.10;99.90
60723;DHT22;46574;52.818;6.516;2023-01-29T15:41:16;5.00;99.90
60723;DHT22;46574;52.818;6.516;2023-01-29T15:43:55;5.10;99.90
60723;DHT22;46574;52.818;6.516;2023-01-29T15:46:27;5.00;99.90
60723;DHT22;46574;52.818;6.516;2023-01-29T15:48:55;5.00;99.90
60723;DHT22;46574;52.818;6.516;2023-01-29T15:51:23;5.10;99.90
60723;DHT22;46574;52.818;6.516;2023-01-29T15:53:52;5.10;99.90
60723;DHT22;46574;52.818;6.516;2023-01-29T15:56:20;5.10;99.90
60723;DHT22;46574;52.818;6.516;2023-01-29T15:58:50;5.10;99.90
60723;DHT22;46574;52.818;6.516;2023-01-29T16:01:16;5.10;99.90
60723;DHT22;46574;52.818;6.516;2023-01-29T16:03:43;5.10;99.90
60723;DHT22;46574;52.818;6.516;2023-01-29T16:06:10;5.10;99.90
60723;DHT22;46574;52.818;6.516;2023-01-29T16:08:37;5.10;99.90
60723;DHT22;46574;52.818;6.516;2023-01-29T16:11:05;5.00;99.90
60723;DHT22;46574;52.818;6.516;2023-01-29T16:13:40;5.00;99.90
60723;DHT22;46574;52.818;6.516;2023-01-29T16:18:40;5.00;99.90
60723;DHT22;46574;52.818;6.516;2023-01-29T16:21:21;5.00;99.90
60723;DHT22;46574;52.818;6.516;2023-01-29T16:23:53;5.00;99.90
60723;DHT22;46574;52.818;6.516;2023-01-29T16:26:46;5.00;99.90
60723;DHT22;46574;52.818;6.516;2023-01-29T16:29:19;5.10;99.90
60723;DHT22;46574;52.818;6.516;2023-01-29T16:31:47;5.10;99.90
60723;DHT22;46574;52.818;6.516;2023-01-29T16:36:53;5.00;99.90
60723;DHT22;46574;52.818;6.516;2023-01-29T16:39:24;5.10;99.90
60723;DHT22;46574;52.818;6.516;2023-01-29T16:45:03;5.10;99.90
60723;DHT22;46574;52.818;6.516;2023-01-29T16:47:38;5.10;99.90
60723;DHT22;46574;52.818;6.516;2023-01-29T16:50:31;5.00;99.90
60723;DHT22;46574;52.818;6.516;2023-01-29T16:53:23;5.10;99.90
60723;DHT22;46574;52.818;6.516;2023-01-29T16:55:51;5.00;99.90
60723;DHT22;46574;52.818;6.516;2023-01-29T16:58:20;5.00;99.90
60723;DHT22;46574;52.818;6.516;2023-01-29T17:00:48;5.00;99.90
60723;DHT22;46574;52.818;6.516;2023-01-29T17:03:16;5.00;99.90
60723;DHT22;46574;52.818;6.516;2023-01-29T17:05:42;5.00;99.90
60723;DHT22;46574;52.818;6.516;2023-01-29T17:08:40;5.00;99.90
60723;DHT22;46574;52.818;6.516;2023-01-29T17:11:06;5.00;99.90
60723;DHT22;46574;52.818;6.516;2023-01-29T17:13:41;5.00;99.90
60723;DHT22;46574;52.818;6.516;2023-01-29T17:16:15;5.00;99.90
60723;DHT22;46574;52.818;6.516;2023-01-29T17:18:45;5.00;99.90
60723;DHT22;46574;52.818;6.516;2023-01-29T17:21:10;5.00;99.90
60723;DHT22;46574;52.818;6.516;2023-01-29T17:23:36;5.00;99.90
60723;DHT22;46574;52.818;6.516;2023-01-29T17:26:02;5.00;99.90
60723;DHT22;46574;52.818;6.516;2023-01-29T17:28:27;5.00;99.90
60723;DHT22;46574;52.818;6.516;2023-01-29T17:30:53;5.00;99.90
60723;DHT22;46574;52.818;6.516;2023-01-29T17:33:19;5.00;99.90
60723;DHT22;46574;52.818;6.516;2023-01-29T17:35:50;5.00;99.90
60723;DHT22;46574;52.818;6.516;2023-01-29T17:38:18;5.00;99.90
60723;DHT22;46574;52.818;6.516;2023-01-29T17:41:04;5.00;99.90
60723;DHT22;46574;52.818;6.516;2023-01-29T17:43:30;5.00;99.90
60723;DHT22;46574;52.818;6.516;2023-01-29T17:45:56;5.10;99.90
60723;DHT22;46574;52.818;6.516;2023-01-29T17:48:27;5.00;99.90
60723;DHT22;46574;52.818;6.516;2023-01-29T17:51:00;5.00;99.90
60723;DHT22;46574;52.818;6.516;2023-01-29T17:53:27;5.00;99.90
60723;DHT22;46574;52.818;6.516;2023-01-29T17:55:52;5.10;99.90
60723;DHT22;46574;52.818;6.516;2023-01-29T17:58:21;5.10;99.90
60723;DHT22;46574;52.818;6.516;2023-01-29T18:00:47;5.10;99.90
60723;DHT22;46574;52.818;6.516;2023-01-29T18:03:14;5.10;99.90
60723;DHT22;46574;52.818;6.516;2023-01-29T18:05:40;5.10;99.90
60723;DHT22;46574;52.818;6.516;2023-01-29T18:08:31;5.10;99.90
60723;DHT22;46574;52.818;6.516;2023-01-29T18:10:58;5.10;99.90
60723;DHT22;46574;52.818;6.516;2023-01-29T18:13:24;5.10;99.90
60723;DHT22;46574;52.818;6.516;2023-01-29T18:15:50;5.10;99.90
60723;DHT22;46574;52.818;6.516;2023-01-29T18:18:21;5.10;99.90
60723;DHT22;46574;52.818;6.516;2023-01-29T18:20:47;5.10;99.90
60723;DHT22;46574;52.818;6.516;2023-01-29T18:23:14;5.10;99.90
60723;DHT22;46574;52.818;6.516;2023-01-29T18:25:40;5.20;99.90
60723;DHT22;46574;52.818;6.516;2023-01-29T18:28:06;5.20;99.90
60723;DHT22;46574;52.818;6.516;2023-01-29T18:30:34;5.20;99.90
60723;DHT22;46574;52.818;6.516;2023-01-29T18:33:01;5.20;99.90
60723;DHT22;46574;52.818;6.516;2023-01-29T18:35:26;5.20;99.90
60723;DHT22;46574;52.818;6.516;2023-01-29T18:37:52;5.20;99.90
60723;DHT22;46574;52.818;6.516;2023-01-29T18:40:18;5.20;99.90
60723;DHT22;46574;52.818;6.516;2023-01-29T18:42:44;5.20;99.90
60723;DHT22;46574;52.818;6.516;2023-01-29T18:45:11;5.20;99.90